Time;durP1;ratioP1;P1;durP2;ratioP2;P2;SDS_P1;SDS_P2;PMS_P1;PMS_P2;Temp;Humidity;BMP_temperature;BMP_pressure;BME280_temperature;BME280_humidity;BME280_pressure;Samples;Min_cycle;Max_cycle;Signal;HPM_P1;HPM_P2
2023/01/01 00:00:20;;;;;;;30.70;10.87;;;15.90;99.90;;;;;;5070215;28;20451;-76
2023/01/01 00:02:47;;;;;;;16.48;8.65;;;15.70;99.90;;;;;;5062825;28;20493;-76
2023/01/01 00:05:14;;;;;;;13.80;6.80;;;15.80;99.90;;;;;;5067153;28;20225;-75
2023/01/01 00:07:41;;;;;;;14.23;8.77;;;15.80;99.90;;;;;;5066089;28;20448;-76
2023/01/01 00:10:28;;;;;;;11.40;7.28;;;15.80;99.90;;;;;;5062676;28;20475;-75
2023/01/01 00:12:55;;;;;;;11.00;5.87;;;15.90;99.90;;;;;;5062816;28;20278;-75
2023/01/01 00:15:24;;;;;;;22.10;7.63;;;15.80;99.90;;;;;;5068708;28;20472;-76
2023/01/01 00:17:51;;;;;;;10.00;5.70;;;15.80;99.90;;;;;;5061433;28;20896;-75
2023/01/01 00:20:18;;;;;;;23.50;9.83;;;15.80;99.90;;;;;;5063549;28;20455;-78
2023/01/01 00:22:45;;;;;;;15.93;8.63;;;15.90;99.90;;;;;;5069466;28;20449;-74
2023/01/01 00:25:13;;;;;;;18.10;9.37;;;15.90;99.90;;;;;;5060862;28;20470;-75
2023/01/01 00:27:42;;;;;;;8.50;5.40;;;15.90;99.90;;;;;;5065209;28;20441;-76
2023/01/01 00:30:10;;;;;;;8.10;5.97;;;15.90;99.90;;;;;;5064577;28;20465;-76
2023/01/01 00:32:41;;;;;;;9.93;6.00;;;16.00;99.90;;;;;;5059977;28;20210;-76
2023/01/01 00:35:09;;;;;;;11.70;6.23;;;16.00;99.90;;;;;;5067653;28;20763;-73
2023/01/01 00:37:36;;;;;;;15.47;7.80;;;15.90;99.90;;;;;;5064135;28;20436;-76
2023/01/01 00:40:04;;;;;;;12.23;6.40;;;16.00;99.90;;;;;;5066216;28;20495;-76
2023/01/01 00:42:31;;;;;;;6.80;4.00;;;16.00;99.90;;;;;;5069823;28;20549;-78
2023/01/01 00:44:58;;;;;;;10.07;4.87;;;16.00;99.90;;;;;;5058504;28;20488;-75
2023/01/01 00:47:25;;;;;;;8.63;6.27;;;16.00;99.90;;;;;;5063998;28;20468;-76
2023/01/01 00:49:53;;;;;;;6.97;4.20;;;16.00;99.90;;;;;;5071545;28;20836;-77
2023/01/01 00:52:22;;;;;;;8.90;4.07;;;16.00;99.90;;;;;;5083464;28;20459;-76
2023/01/01 00:54:49;;;;;;;6.73;4.00;;;16.00;99.90;;;;;;5074433;28;21016;-75
2023/01/01 00:57:17;;;;;;;9.00;4.30;;;16.00;99.90;;;;;;5068368;28;20450;-76
2023/01/01 00:59:44;;;;;;;11.83;5.00;;;16.10;99.90;;;;;;5063507;28;20524;-75
2023/01/01 01:02:12;;;;;;;8.80;4.37;;;16.10;99.90;;;;;;5065169;28;20855;-75
2023/01/01 01:04:39;;;;;;;8.80;4.50;;;16.10;99.90;;;;;;5060786;28;20507;-76
2023/01/01 01:07:07;;;;;;;11.70;5.70;;;16.10;99.90;;;;;;5067518;28;20495;-74
2023/01/01 01:09:34;;;;;;;10.73;4.87;;;16.10;99.90;;;;;;5069013;28;20477;-76
2023/01/01 01:12:01;;;;;;;9.93;4.80;;;16.00;99.90;;;;;;5067358;28;20432;-75
2023/01/01 01:14:28;;;;;;;6.90;4.30;;;16.20;99.90;;;;;;5066519;28;20478;-76
2023/01/01 01:16:55;;;;;;;10.20;5.00;;;16.20;99.90;;;;;;5067547;28;20455;-75
2023/01/01 01:19:24;;;;;;;18.42;8.55;;;16.20;99.90;;;;;;5066186;28;20452;-74
2023/01/01 01:21:51;;;;;;;7.20;4.43;;;16.10;99.90;;;;;;5069361;28;20205;-74
2023/01/01 01:24:26;;;;;;;12.47;4.70;;;16.10;99.90;;;;;;5063187;28;20476;-75
2023/01/01 01:26:53;;;;;;;18.93;5.37;;;16.10;99.90;;;;;;5079849;28;20455;-75
2023/01/01 01:29:20;;;;;;;11.70;5.30;;;16.00;99.90;;;;;;5076429;28;20442;-74
2023/01/01 01:31:47;;;;;;;10.30;4.40;;;16.00;99.90;;;;;;5067493;28;20923;-74
2023/01/01 01:34:16;;;;;;;5.40;3.60;;;15.90;99.90;;;;;;5065959;28;20484;-74
2023/01/01 01:36:43;;;;;;;12.98;5.13;;;15.90;99.90;;;;;;5072542;28;20999;-74
2023/01/01 01:39:11;;;;;;;10.57;4.85;;;15.90;99.90;;;;;;5068568;28;20195;-74
2023/01/01 01:41:39;;;;;;;9.40;3.80;;;15.90;99.90;;;;;;5070681;28;20244;-74
2023/01/01 01:44:46;;;;;;;17.00;4.77;;;15.80;99.90;;;;;;5068548;28;20432;-74
2023/01/01 01:47:16;;;;;;;15.00;5.53;;;15.80;99.90;;;;;;5069142;28;20458;-74
2023/01/01 01:49:45;;;;;;;12.30;4.80;;;15.90;99.90;;;;;;5067798;28;20433;-75
2023/01/01 01:52:12;;;;;;;10.90;4.27;;;15.90;99.90;;;;;;5064707;28;20860;-74
2023/01/01 01:54:40;;;;;;;7.03;4.47;;;15.80;99.90;;;;;;5072280;28;20545;-75
2023/01/01 01:57:10;;;;;;;14.00;4.30;;;15.90;99.90;;;;;;5073049;28;20453;-75
2023/01/01 01:59:40;;;;;;;12.40;4.85;;;15.90;99.90;;;;;;5076386;28;20449;-75
2023/01/01 02:02:14;;;;;;;5.03;3.77;;;15.90;99.90;;;;;;5066401;28;20205;-76
2023/01/01 02:04:43;;;;;;;7.47;4.47;;;15.90;99.90;;;;;;5068456;28;20468;-74
2023/01/01 02:07:12;;;;;;;6.60;4.30;;;15.90;99.90;;;;;;5068762;28;20526;-75
2023/01/01 02:09:39;;;;;;;9.30;5.37;;;15.90;99.90;;;;;;5068845;28;20434;-75
2023/01/01 02:12:06;;;;;;;11.90;5.07;;;15.90;99.90;;;;;;5066906;28;20942;-76
2023/01/01 02:14:33;;;;;;;13.93;6.00;;;15.90;99.90;;;;;;5065213;28;20556;-74
2023/01/01 02:17:07;;;;;;;12.17;5.37;;;15.90;99.90;;;;;;5067216;28;20465;-74
2023/01/01 02:19:51;;;;;;;12.10;7.37;;;15.90;99.90;;;;;;5066326;28;20520;-74
2023/01/01 02:22:29;;;;;;;11.93;6.77;;;15.90;99.90;;;;;;5065376;28;20899;-75
2023/01/01 02:25:08;;;;;;;9.67;5.37;;;15.80;99.90;;;;;;5066382;28;20499;-74
2023/01/01 02:27:46;;;;;;;12.47;6.67;;;15.80;99.90;;;;;;5067410;28;20509;-75
2023/01/01 02:30:15;;;;;;;13.80;5.40;;;15.80;99.90;;;;;;5069054;28;20459;-74
2023/01/01 02:32:46;;;;;;;9.13;6.53;;;15.80;99.90;;;;;;5079300;28;20421;-74
2023/01/01 02:35:35;;;;;;;11.53;6.43;;;15.80;99.90;;;;;;5079655;28;20485;-74
2023/01/01 02:38:09;;;;;;;13.67;6.30;;;15.80;99.90;;;;;;5073843;28;20821;-75
2023/01/01 02:40:40;;;;;;;9.87;7.20;;;15.70;99.90;;;;;;5057741;28;20433;-74
2023/01/01 02:43:07;;;;;;;13.07;5.30;;;15.70;99.90;;;;;;5065163;28;20475;-73
2023/01/01 02:45:35;;;;;;;9.77;4.63;;;15.70;99.90;;;;;;5063793;28;20484;-75
2023/01/01 02:48:06;;;;;;;10.33;5.00;;;15.70;99.90;;;;;;5070366;28;20757;-74
2023/01/01 02:50:35;;;;;;;7.50;5.13;;;15.70;99.90;;;;;;5069065;28;20862;-75
2023/01/01 02:53:21;;;;;;;43.15;25.05;;;15.70;99.90;;;;;;5065634;28;20768;-74
2023/01/01 02:55:57;;;;;;;14.27;4.77;;;15.60;99.90;;;;;;5063465;28;20304;-76
2023/01/01 03:01:29;;;;;;;7.30;5.47;;;15.60;99.90;;;;;;5071883;28;20563;-75
2023/01/01 03:04:07;;;;;;;12.27;6.87;;;15.50;99.90;;;;;;5070788;28;20483;-75
2023/01/01 03:06:40;;;;;;;14.43;5.10;;;15.50;99.90;;;;;;5058113;28;20580;-75
2023/01/01 03:09:18;;;;;;;8.33;5.83;;;15.50;99.90;;;;;;5046699;28;20449;-75
2023/01/01 03:11:52;;;;;;;11.23;5.90;;;15.40;99.90;;;;;;5065143;28;20445;-74
2023/01/01 03:14:27;;;;;;;11.40;6.87;;;15.40;99.90;;;;;;5065370;28;20610;-75
2023/01/01 03:16:59;;;;;;;10.40;7.93;;;15.40;99.90;;;;;;5064607;28;20540;-74
2023/01/01 03:19:30;;;;;;;13.33;6.30;;;15.40;99.90;;;;;;5063535;28;20440;-74
2023/01/01 03:22:03;;;;;;;10.87;6.47;;;15.30;99.90;;;;;;5063664;28;21127;-74
2023/01/01 03:24:34;;;;;;;11.27;5.22;;;15.40;99.90;;;;;;5062766;28;20920;-73
2023/01/01 03:27:08;;;;;;;8.83;6.03;;;15.30;99.90;;;;;;5066522;28;20228;-75
2023/01/01 03:29:38;;;;;;;14.18;6.32;;;15.30;99.90;;;;;;5058991;28;20458;-74
2023/01/01 03:32:13;;;;;;;11.57;6.28;;;15.30;99.90;;;;;;5060347;28;20208;-74
2023/01/01 03:34:45;;;;;;;9.65;5.97;;;15.30;99.90;;;;;;5074485;28;20212;-75
2023/01/01 03:37:16;;;;;;;10.40;5.90;;;15.30;99.90;;;;;;5064145;28;20731;-74
2023/01/01 03:39:48;;;;;;;8.73;5.50;;;15.30;99.90;;;;;;5063957;28;20428;-75
2023/01/01 03:42:18;;;;;;;14.73;6.47;;;15.20;99.90;;;;;;5075388;28;20640;-75
2023/01/01 03:44:48;;;;;;;16.92;5.80;;;15.30;99.90;;;;;;5067282;28;20208;-75
2023/01/01 03:47:23;;;;;;;12.48;7.57;;;15.40;99.90;;;;;;5077199;28;20217;-74
2023/01/01 03:49:50;;;;;;;8.43;4.47;;;15.30;99.90;;;;;;5066979;28;20235;-74
2023/01/01 03:52:30;;;;;;;14.52;5.90;;;15.30;99.90;;;;;;5061904;28;20260;-74
2023/01/01 03:55:06;;;;;;;14.80;5.53;;;15.30;99.90;;;;;;5063903;28;20304;-73
2023/01/01 03:57:43;;;;;;;7.47;5.10;;;15.40;99.90;;;;;;5061450;28;20507;-75
2023/01/01 04:00:15;;;;;;;9.48;4.97;;;15.30;99.90;;;;;;5050386;28;20443;-74
2023/01/01 04:02:49;;;;;;;7.45;4.93;;;15.30;99.90;;;;;;5064719;28;20194;-74
2023/01/01 04:05:17;;;;;;;12.95;4.90;;;15.30;99.90;;;;;;5068594;28;20305;-74
2023/01/01 04:07:44;;;;;;;10.23;5.37;;;15.30;99.90;;;;;;5068664;28;20197;-74
2023/01/01 04:10:17;;;;;;;9.53;4.27;;;15.30;99.90;;;;;;5062533;28;20442;-74
2023/01/01 04:12:48;;;;;;;9.43;4.23;;;15.30;99.90;;;;;;5070404;28;20440;-74
2023/01/01 04:15:16;;;;;;;9.30;5.63;;;15.30;99.90;;;;;;5074606;28;20492;-74
2023/01/01 04:17:45;;;;;;;10.93;5.93;;;15.30;99.90;;;;;;5076309;28;20547;-74
2023/01/01 04:20:14;;;;;;;14.48;5.20;;;15.30;99.90;;;;;;5060248;28;20294;-75
2023/01/01 04:22:41;;;;;;;8.50;4.30;;;15.40;99.90;;;;;;5072413;28;20212;-75
2023/01/01 04:25:10;;;;;;;15.67;7.50;;;15.50;99.90;;;;;;5064141;28;20553;-74
2023/01/01 04:27:37;;;;;;;15.90;6.77;;;15.40;99.90;;;;;;5066273;28;20444;-74
2023/01/01 04:30:05;;;;;;;12.23;5.20;;;15.50;99.90;;;;;;5067958;28;20459;-78
2023/01/01 04:32:33;;;;;;;10.60;5.05;;;15.50;99.90;;;;;;5075952;28;20451;-75
2023/01/01 04:35:01;;;;;;;11.07;3.63;;;15.50;99.90;;;;;;5067959;28;20237;-74
2023/01/01 04:37:28;;;;;;;14.33;4.00;;;15.60;99.90;;;;;;5067892;28;20222;-74
2023/01/01 04:39:55;;;;;;;10.27;4.60;;;15.60;99.90;;;;;;5065299;28;20463;-74
2023/01/01 04:42:22;;;;;;;9.13;4.57;;;15.60;99.90;;;;;;5069167;28;20443;-74
2023/01/01 04:44:50;;;;;;;4.88;4.00;;;15.60;99.90;;;;;;5064105;28;20441;-74
2023/01/01 04:47:17;;;;;;;5.03;3.03;;;15.50;99.90;;;;;;5066526;28;20285;-74
2023/01/01 04:49:44;;;;;;;6.37;3.50;;;15.50;99.90;;;;;;5070366;28;20444;-74
2023/01/01 04:52:12;;;;;;;9.88;4.13;;;15.50;99.90;;;;;;5070798;28;20461;-74
2023/01/01 04:54:40;;;;;;;5.80;4.07;;;15.50;99.90;;;;;;5064388;28;20213;-74
2023/01/01 04:57:07;;;;;;;6.90;3.30;;;15.50;99.90;;;;;;5066694;28;20475;-75
2023/01/01 04:59:34;;;;;;;11.60;3.70;;;15.50;99.90;;;;;;5069666;28;20448;-74
2023/01/01 05:02:01;;;;;;;7.87;3.17;;;15.50;99.90;;;;;;5070317;28;20448;-75
2023/01/01 05:04:28;;;;;;;6.73;3.17;;;15.50;99.90;;;;;;5060733;28;20438;-74
2023/01/01 05:06:55;;;;;;;9.00;3.87;;;15.50;99.90;;;;;;5074383;28;20761;-74
2023/01/01 05:09:24;;;;;;;6.80;2.90;;;15.50;99.90;;;;;;5073439;28;20472;-74
2023/01/01 05:11:51;;;;;;;4.93;3.70;;;15.50;99.90;;;;;;5074519;28;20528;-74
2023/01/01 05:14:19;;;;;;;7.40;2.92;;;15.50;99.90;;;;;;5063687;28;20520;-75
2023/01/01 05:16:46;;;;;;;7.10;2.97;;;15.60;99.90;;;;;;5068990;28;20615;-75
2023/01/01 05:19:14;;;;;;;10.53;3.60;;;15.50;99.90;;;;;;5063880;28;20494;-73
2023/01/01 05:21:41;;;;;;;8.17;3.20;;;15.50;99.90;;;;;;5066465;28;20448;-74
2023/01/01 05:24:09;;;;;;;9.03;3.20;;;15.50;99.90;;;;;;5074847;28;20537;-74
2023/01/01 05:26:41;;;;;;;7.93;4.30;;;15.60;99.90;;;;;;5072249;28;20468;-73
2023/01/01 05:29:08;;;;;;;9.93;3.60;;;15.60;99.90;;;;;;5078037;28;20449;-74
2023/01/01 05:31:37;;;;;;;5.20;3.47;;;15.50;99.90;;;;;;5074443;28;20513;-74
2023/01/01 05:34:05;;;;;;;5.20;3.20;;;15.50;99.90;;;;;;5083533;28;20523;-75
2023/01/01 05:36:34;;;;;;;7.23;4.03;;;15.50;99.90;;;;;;5064610;28;20226;-74
2023/01/01 05:39:01;;;;;;;6.00;3.22;;;15.50;99.90;;;;;;5068771;28;20998;-74
2023/01/01 05:41:29;;;;;;;6.70;3.07;;;15.50;99.90;;;;;;5063038;28;20192;-73
2023/01/01 05:43:58;;;;;;;11.13;3.60;;;15.50;99.90;;;;;;5064278;28;20450;-73
2023/01/01 05:46:25;;;;;;;6.90;3.13;;;15.40;99.90;;;;;;5072695;28;20463;-73
2023/01/01 05:48:54;;;;;;;8.02;3.05;;;15.40;99.90;;;;;;5073833;28;20527;-73
2023/01/01 05:51:23;;;;;;;7.15;3.40;;;15.40;99.90;;;;;;5070096;28;20194;-74
2023/01/01 05:53:50;;;;;;;6.60;3.07;;;15.40;99.90;;;;;;5070287;28;20256;-72
2023/01/01 05:56:18;;;;;;;9.65;2.90;;;15.30;99.90;;;;;;5073855;28;21016;-73
2023/01/01 05:58:45;;;;;;;4.20;2.33;;;15.30;99.90;;;;;;5080774;28;20194;-72
2023/01/01 06:01:18;;;;;;;7.10;2.90;;;15.30;99.90;;;;;;5083885;28;20530;-72
2023/01/01 06:03:47;;;;;;;7.05;2.53;;;15.40;99.90;;;;;;5059296;28;20238;-73
2023/01/01 06:06:18;;;;;;;5.35;2.65;;;15.40;99.90;;;;;;5067853;28;20210;-75
2023/01/01 06:08:49;;;;;;;7.38;2.72;;;15.40;99.90;;;;;;5076581;28;20232;-74
2023/01/01 06:11:17;;;;;;;9.03;2.30;;;15.50;99.90;;;;;;5068303;28;20614;-74
2023/01/01 06:13:43;;;;;;;7.13;2.40;;;15.40;99.90;;;;;;5062702;28;20467;-75
2023/01/01 06:16:11;;;;;;;7.20;3.30;;;15.30;99.90;;;;;;5063953;28;20265;-74
2023/01/01 06:18:39;;;;;;;9.13;3.60;;;15.30;99.90;;;;;;5061509;28;20914;-73
2023/01/01 06:21:08;;;;;;;4.37;2.60;;;15.30;99.90;;;;;;5073210;28;20445;-73
2023/01/01 06:23:36;;;;;;;13.43;2.67;;;15.20;99.90;;;;;;5064464;28;20451;-74
2023/01/01 06:26:07;;;;;;;9.60;2.83;;;15.20;99.90;;;;;;5069413;28;20220;-74
2023/01/01 06:28:35;;;;;;;10.80;3.53;;;15.30;99.90;;;;;;5072446;28;20444;-74
2023/01/01 06:31:03;;;;;;;7.57;2.67;;;15.30;99.90;;;;;;5067330;28;20438;-74
2023/01/01 06:33:30;;;;;;;3.72;2.10;;;15.30;99.90;;;;;;5076703;28;20194;-74
2023/01/01 06:36:02;;;;;;;7.73;4.10;;;15.30;99.90;;;;;;5074517;28;20332;-74
2023/01/01 06:38:31;;;;;;;3.97;2.90;;;15.20;99.90;;;;;;5073434;28;20521;-74
2023/01/01 06:40:59;;;;;;;4.43;2.87;;;15.20;99.90;;;;;;5069493;28;20282;-74
2023/01/01 06:43:26;;;;;;;7.40;2.85;;;15.20;99.90;;;;;;5070890;28;20483;-74
2023/01/01 06:46:03;;;;;;;10.80;3.60;;;15.20;99.90;;;;;;5061484;28;20216;-74
2023/01/01 06:48:34;;;;;;;4.90;1.92;;;15.20;99.90;;;;;;5078617;28;20468;-74
2023/01/01 06:51:08;;;;;;;6.47;2.95;;;15.20;99.90;;;;;;5066522;28;20634;-74
2023/01/01 06:53:35;;;;;;;4.38;2.05;;;15.10;99.90;;;;;;5066004;28;20234;-74
2023/01/01 06:56:02;;;;;;;6.17;2.53;;;15.10;99.90;;;;;;5062282;28;20217;-73
2023/01/01 06:58:30;;;;;;;3.28;2.40;;;15.10;99.90;;;;;;5067284;28;20448;-74
2023/01/01 07:01:03;;;;;;;7.43;1.90;;;15.10;99.90;;;;;;5060238;28;20254;-74
2023/01/01 07:03:30;;;;;;;2.65;1.90;;;15.00;99.90;;;;;;5060043;28;20614;-73
2023/01/01 07:05:57;;;;;;;4.90;2.38;;;15.00;99.90;;;;;;5064733;28;20303;-72
2023/01/01 07:08:25;;;;;;;9.60;2.72;;;15.00;99.90;;;;;;5071896;28;20200;-73
2023/01/01 07:10:52;;;;;;;16.83;3.05;;;15.00;99.90;;;;;;5063116;28;20206;-73
2023/01/01 07:13:19;;;;;;;8.07;2.95;;;15.00;99.90;;;;;;5058380;28;20205;-73
2023/01/01 07:15:46;;;;;;;7.20;2.00;;;15.00;99.90;;;;;;5075404;28;20236;-74
2023/01/01 07:18:13;;;;;;;7.73;2.00;;;14.90;99.90;;;;;;5079456;28;20286;-75
2023/01/01 07:20:40;;;;;;;4.43;2.27;;;14.90;99.90;;;;;;5062184;28;20535;-75
2023/01/01 07:23:08;;;;;;;4.07;2.50;;;14.90;99.90;;;;;;5056095;28;20461;-73
2023/01/01 07:25:36;;;;;;;4.18;1.90;;;14.90;99.90;;;;;;5066457;28;20487;-73
2023/01/01 07:28:03;;;;;;;3.30;1.90;;;14.90;99.90;;;;;;5069015;28;20285;-73
2023/01/01 07:30:30;;;;;;;6.10;1.70;;;14.90;99.90;;;;;;5064375;28;20443;-74
2023/01/01 07:32:57;;;;;;;6.07;1.90;;;14.80;99.90;;;;;;5069468;28;20214;-75
2023/01/01 07:35:23;;;;;;;8.48;2.65;;;14.80;99.90;;;;;;5060795;28;20267;-74
2023/01/01 07:37:50;;;;;;;4.38;2.10;;;14.80;99.90;;;;;;5073177;28;20232;-74
2023/01/01 07:40:17;;;;;;;3.30;1.88;;;14.80;99.90;;;;;;5063174;28;20277;-73
2023/01/01 07:42:45;;;;;;;5.53;1.90;;;14.80;99.90;;;;;;5081667;28;20210;-74
2023/01/01 07:45:13;;;;;;;7.25;2.03;;;14.80;99.90;;;;;;5078523;28;20235;-73
2023/01/01 07:47:40;;;;;;;7.97;1.92;;;14.80;99.90;;;;;;5064104;28;20200;-74
2023/01/01 07:50:07;;;;;;;4.20;1.70;;;14.80;99.90;;;;;;5065112;28;20236;-73
2023/01/01 07:52:34;;;;;;;4.40;1.70;;;14.80;99.90;;;;;;5057936;28;20444;-74
2023/01/01 07:55:01;;;;;;;6.18;2.58;;;14.80;99.90;;;;;;5063752;28;20226;-74
2023/01/01 07:57:28;;;;;;;5.45;2.03;;;14.80;99.90;;;;;;5058430;28;20227;-73
2023/01/01 07:59:56;;;;;;;3.15;1.33;;;14.80;99.90;;;;;;5062511;28;20227;-73
2023/01/01 08:02:23;;;;;;;3.65;1.90;;;14.70;99.90;;;;;;5066072;28;20668;-73
2023/01/01 08:04:50;;;;;;;5.95;2.22;;;14.80;99.90;;;;;;5062473;28;20254;-74
2023/01/01 08:07:17;;;;;;;2.70;1.85;;;14.80;99.90;;;;;;5068610;28;20252;-74
2023/01/01 08:09:44;;;;;;;7.43;2.10;;;14.80;99.90;;;;;;5069314;28;20207;-73
2023/01/01 08:12:10;;;;;;;4.72;2.08;;;14.80;99.90;;;;;;5071250;28;20557;-73
2023/01/01 08:14:38;;;;;;;6.43;2.10;;;14.80;99.90;;;;;;5064411;28;20688;-75
2023/01/01 08:17:06;;;;;;;6.63;2.60;;;14.80;99.90;;;;;;5072002;28;20227;-72
2023/01/01 08:19:35;;;;;;;5.35;2.60;;;14.80;99.90;;;;;;5063613;28;20244;-74
2023/01/01 08:22:01;;;;;;;2.40;1.70;;;14.80;99.90;;;;;;5069638;28;20208;-74
2023/01/01 08:24:28;;;;;;;6.35;1.70;;;14.80;99.90;;;;;;5063294;28;20440;-73
2023/01/01 08:26:55;;;;;;;6.72;1.83;;;14.80;99.90;;;;;;5068428;28;20224;-73
2023/01/01 08:29:22;;;;;;;4.70;1.85;;;14.80;99.90;;;;;;5066918;28;20204;-74
2023/01/01 08:31:49;;;;;;;4.53;1.83;;;14.80;99.90;;;;;;5064610;28;20205;-73
2023/01/01 08:34:17;;;;;;;4.80;1.92;;;14.80;99.90;;;;;;5076911;28;20205;-73
2023/01/01 08:36:45;;;;;;;6.93;2.63;;;14.80;99.90;;;;;;5066529;28;20684;-73
2023/01/01 08:39:12;;;;;;;9.17;2.50;;;14.60;99.90;;;;;;5056589;28;20210;-73
2023/01/01 08:41:40;;;;;;;6.88;2.10;;;14.80;99.90;;;;;;5068077;28;20439;-73
2023/01/01 08:44:06;;;;;;;2.85;2.17;;;14.80;99.90;;;;;;5065036;28;20666;-74
2023/01/01 08:46:33;;;;;;;4.63;2.05;;;14.70;99.90;;;;;;5064761;28;20211;-74
2023/01/01 08:49:00;;;;;;;7.63;2.30;;;14.60;99.90;;;;;;5070534;28;20268;-74
2023/01/01 08:51:28;;;;;;;6.00;1.80;;;14.70;99.90;;;;;;5064643;28;20216;-74
2023/01/01 08:53:55;;;;;;;8.57;1.90;;;14.70;99.90;;;;;;5067387;28;20255;-73
2023/01/01 08:56:22;;;;;;;4.20;1.60;;;14.70;99.90;;;;;;5069780;28;20252;-74
2023/01/01 08:58:49;;;;;;;7.95;2.30;;;14.80;99.90;;;;;;5065717;28;20203;-74
2023/01/01 09:01:16;;;;;;;8.93;1.83;;;14.70;99.90;;;;;;5070276;28;20212;-75
2023/01/01 09:03:43;;;;;;;5.87;2.23;;;14.80;99.90;;;;;;5068807;28;20262;-74
2023/01/01 09:06:10;;;;;;;8.37;2.10;;;14.80;99.90;;;;;;5074733;28;20509;-73
2023/01/01 09:08:38;;;;;;;6.32;2.30;;;14.80;99.90;;;;;;5066923;28;20944;-74
2023/01/01 09:11:06;;;;;;;3.70;2.20;;;14.80;99.90;;;;;;5067883;28;20197;-75
2023/01/01 09:13:34;;;;;;;5.93;1.98;;;14.80;99.90;;;;;;5075686;28;20607;-73
2023/01/01 09:16:00;;;;;;;3.93;1.50;;;14.90;99.90;;;;;;5068155;28;20228;-73
2023/01/01 09:18:27;;;;;;;3.70;1.50;;;14.80;99.90;;;;;;5062146;28;20451;-74
2023/01/01 09:20:54;;;;;;;4.40;1.20;;;15.00;99.90;;;;;;5068703;28;21029;-75
2023/01/01 09:23:21;;;;;;;3.35;1.20;;;14.90;98.10;;;;;;5073149;28;20567;-76
2023/01/01 09:25:50;;;;;;;2.00;1.15;;;14.90;97.10;;;;;;5068844;28;20216;-75
2023/01/01 09:28:17;;;;;;;2.53;1.13;;;14.90;96.40;;;;;;5091935;28;20269;-74
2023/01/01 09:30:44;;;;;;;5.18;2.20;;;14.90;95.80;;;;;;5075806;28;20573;-74
2023/01/01 09:33:11;;;;;;;3.88;1.50;;;14.90;95.90;;;;;;5067919;28;20252;-75
2023/01/01 09:35:42;;;;;;;3.55;1.10;;;15.00;95.60;;;;;;5075667;28;20224;-73
2023/01/01 09:38:09;;;;;;;3.25;1.30;;;14.90;96.00;;;;;;5067752;28;20201;-74
2023/01/01 09:40:55;;;;;;;3.55;1.60;;;14.90;95.60;;;;;;5064469;28;20232;-72
2023/01/01 09:43:29;;;;;;;3.70;1.43;;;14.90;95.40;;;;;;5064009;28;20581;-73
2023/01/01 09:46:00;;;;;;;1.63;1.08;;;14.90;95.50;;;;;;5042514;28;20491;-74
2023/01/01 09:48:29;;;;;;;5.35;1.27;;;14.90;95.40;;;;;;5059198;28;20301;-73
2023/01/01 09:50:57;;;;;;;10.13;1.40;;;14.90;95.50;;;;;;5066201;28;20254;-74
2023/01/01 09:53:31;;;;;;;4.93;1.00;;;14.80;95.50;;;;;;5065085;28;20289;-74
2023/01/01 09:56:02;;;;;;;1.20;0.70;;;14.80;95.60;;;;;;5063599;28;20490;-74
2023/01/01 09:58:32;;;;;;;3.47;1.25;;;14.80;95.80;;;;;;5061264;28;20467;-74
2023/01/01 10:01:06;;;;;;;4.25;1.10;;;14.80;95.60;;;;;;5066706;28;20200;-73
2023/01/01 10:03:40;;;;;;;4.47;2.00;;;14.90;95.80;;;;;;5060079;28;20249;-73
2023/01/01 10:06:20;;;;;;;3.20;0.93;;;14.70;95.80;;;;;;5065362;28;20296;-73
2023/01/01 10:09:00;;;;;;;10.93;1.80;;;14.70;95.60;;;;;;5071157;28;20201;-73
2023/01/01 10:11:40;;;;;;;1.15;0.70;;;14.60;95.60;;;;;;5039512;28;20219;-77
2023/01/01 10:14:18;;;;;;;2.63;0.90;;;14.60;95.80;;;;;;5064624;28;20284;-75
2023/01/01 10:16:48;;;;;;;3.03;1.00;;;14.70;95.70;;;;;;5047887;28;20484;-75
2023/01/01 10:19:25;;;;;;;1.85;1.00;;;14.70;95.80;;;;;;5066700;28;20229;-75
2023/01/01 10:21:55;;;;;;;1.92;0.90;;;14.70;95.50;;;;;;5066593;28;20650;-74
2023/01/01 10:24:37;;;;;;;1.95;0.68;;;14.60;95.30;;;;;;5072666;28;20207;-73
2023/01/01 10:27:06;;;;;;;1.95;0.77;;;14.60;95.30;;;;;;5066977;28;20200;-73
2023/01/01 10:29:42;;;;;;;1.75;0.95;;;14.60;95.40;;;;;;5062602;28;20562;-73
2023/01/01 10:32:19;;;;;;;1.98;1.23;;;14.60;95.30;;;;;;5065377;28;20551;-73
2023/01/01 10:34:46;;;;;;;2.00;0.77;;;14.60;95.50;;;;;;5070633;28;20206;-75
2023/01/01 10:37:14;;;;;;;3.70;1.15;;;14.70;95.70;;;;;;5067218;28;20646;-74
2023/01/01 10:39:42;;;;;;;3.35;1.15;;;14.70;95.30;;;;;;5065429;28;20199;-73
2023/01/01 10:42:12;;;;;;;3.92;1.00;;;14.90;95.30;;;;;;5071413;28;20206;-75
2023/01/01 10:44:40;;;;;;;5.05;0.93;;;14.90;95.40;;;;;;5072256;28;20671;-74
2023/01/01 10:47:27;;;;;;;6.00;1.05;;;14.90;95.30;;;;;;5068846;28;20241;-74
2023/01/01 10:49:56;;;;;;;3.58;1.55;;;14.70;95.40;;;;;;5071885;28;20193;-74
2023/01/01 10:52:27;;;;;;;2.40;0.93;;;14.60;95.90;;;;;;5063436;28;20213;-74
2023/01/01 10:54:54;;;;;;;2.20;0.80;;;14.70;95.80;;;;;;5071352;28;20299;-74
2023/01/01 10:57:33;;;;;;;3.17;1.02;;;14.60;95.90;;;;;;5064448;28;20220;-75
2023/01/01 11:00:22;;;;;;;1.63;0.80;;;14.50;96.30;;;;;;5072431;28;20292;-74
2023/01/01 11:03:11;;;;;;;2.72;0.90;;;14.60;96.50;;;;;;5068497;28;20287;-72
2023/01/01 11:05:38;;;;;;;1.27;0.80;;;14.60;96.30;;;;;;5065950;28;20270;-73
2023/01/01 11:08:18;;;;;;;3.88;1.05;;;14.50;96.50;;;;;;5063762;28;20224;-73
2023/01/01 11:10:51;;;;;;;3.85;1.25;;;14.40;96.60;;;;;;5079694;28;20217;-74
2023/01/01 11:13:21;;;;;;;3.13;1.05;;;14.40;97.00;;;;;;5079284;28;20199;-74
2023/01/01 11:15:48;;;;;;;5.53;1.20;;;14.30;97.00;;;;;;5064918;28;20541;-74
2023/01/01 11:18:16;;;;;;;4.22;1.15;;;14.20;97.20;;;;;;5071707;28;20255;-75
2023/01/01 11:20:44;;;;;;;8.10;1.40;;;14.30;97.30;;;;;;5062831;28;20196;-73
2023/01/01 11:23:31;;;;;;;4.13;1.25;;;14.30;97.70;;;;;;5069376;28;20670;-74
2023/01/01 11:26:00;;;;;;;8.38;2.00;;;14.20;97.50;;;;;;5070457;28;20385;-73
2023/01/01 11:28:30;;;;;;;3.42;1.63;;;14.10;97.60;;;;;;5066304;28;20208;-75
2023/01/01 11:31:07;;;;;;;4.10;1.13;;;14.10;98.00;;;;;;5064002;28;20592;-73
2023/01/01 11:33:38;;;;;;;5.60;2.17;;;14.10;98.20;;;;;;5060254;28;20195;-74
2023/01/01 11:36:06;;;;;;;7.70;2.15;;;14.00;98.50;;;;;;5071719;28;20246;-75
2023/01/01 11:38:34;;;;;;;3.28;1.10;;;14.00;98.60;;;;;;5063778;28;20196;-76
2023/01/01 11:41:06;;;;;;;20.95;1.60;;;13.90;98.60;;;;;;5067227;28;20221;-74
2023/01/01 11:43:39;;;;;;;3.42;1.17;;;13.90;98.80;;;;;;5065088;28;20230;-74
2023/01/01 11:46:10;;;;;;;6.20;1.65;;;13.90;98.80;;;;;;5062802;28;20255;-74
2023/01/01 11:48:41;;;;;;;6.22;1.55;;;13.90;98.80;;;;;;5060543;28;20230;-74
2023/01/01 11:51:10;;;;;;;9.38;2.03;;;13.80;98.90;;;;;;5065399;28;20203;-74
2023/01/01 11:53:40;;;;;;;2.92;1.60;;;14.00;99.00;;;;;;5066362;28;20203;-74
2023/01/01 11:56:15;;;;;;;3.83;1.45;;;14.00;99.00;;;;;;5062062;28;20300;-73
2023/01/01 11:58:51;;;;;;;6.57;2.15;;;14.10;99.20;;;;;;5061868;28;20196;-74
2023/01/01 12:01:26;;;;;;;5.78;1.90;;;14.00;99.20;;;;;;5055065;28;20593;-74
2023/01/01 12:03:58;;;;;;;4.78;2.15;;;14.10;99.20;;;;;;5064495;28;20277;-74
2023/01/01 12:06:30;;;;;;;11.25;1.77;;;14.10;99.60;;;;;;5064041;28;20215;-73
2023/01/01 12:09:09;;;;;;;5.97;1.30;;;14.00;99.90;;;;;;5068695;28;20615;-73
2023/01/01 12:11:43;;;;;;;5.47;1.70;;;14.00;99.90;;;;;;5047168;28;20274;-74
2023/01/01 12:14:20;;;;;;;5.13;1.60;;;13.90;99.90;;;;;;5066083;28;20288;-73
2023/01/01 12:16:53;;;;;;;3.05;1.33;;;13.90;99.90;;;;;;5065890;28;20232;-75
2023/01/01 12:19:23;;;;;;;6.70;1.65;;;14.00;99.90;;;;;;5046489;28;20635;-76
2023/01/01 12:21:54;;;;;;;5.70;1.33;;;14.00;99.90;;;;;;5062799;28;20283;-74
2023/01/01 12:24:22;;;;;;;6.97;2.00;;;14.00;99.90;;;;;;5068500;28;20260;-75
2023/01/01 12:27:02;;;;;;;4.28;1.30;;;14.00;99.90;;;;;;5062087;28;20685;-74
2023/01/01 12:29:49;;;;;;;1.88;1.33;;;13.90;99.90;;;;;;5070642;28;20583;-74
2023/01/01 12:32:27;;;;;;;8.13;3.10;;;13.90;99.90;;;;;;5069519;28;20305;-74
2023/01/01 12:35:00;;;;;;;8.68;1.60;;;13.90;99.90;;;;;;5076659;28;20221;-73
2023/01/01 12:37:39;;;;;;;2.45;1.33;;;13.80;99.90;;;;;;5078833;28;20252;-74
2023/01/01 12:40:37;;;;;;;4.88;1.40;;;13.80;99.90;;;;;;5069938;28;20210;-74
2023/01/01 12:43:08;;;;;;;4.28;2.42;;;13.90;99.90;;;;;;5045706;28;20245;-74
2023/01/01 12:45:59;;;;;;;7.65;2.22;;;14.00;99.90;;;;;;5061326;28;20223;-75
2023/01/01 12:48:53;;;;;;;3.72;2.08;;;14.10;99.90;;;;;;5070812;28;20204;-73
2023/01/01 12:51:31;;;;;;;6.60;2.78;;;14.30;99.90;;;;;;5073955;28;20192;-73
2023/01/01 12:54:27;;;;;;;9.27;2.00;;;14.40;99.90;;;;;;5082717;28;20237;-73
2023/01/01 12:57:01;;;;;;;4.35;1.70;;;14.40;99.90;;;;;;5084468;28;20224;-73
2023/01/01 12:59:33;;;;;;;7.55;1.85;;;14.40;99.90;;;;;;5065739;28;20224;-74
2023/01/01 13:02:10;;;;;;;8.00;1.88;;;14.40;99.90;;;;;;5067629;28;20248;-74